Time;durP1;ratioP1;P1;durP2;ratioP2;P2;SDS_P1;SDS_P2;PMS_P1;PMS_P2;Temp;Humidity;BMP_temperature;BMP_pressure;BME280_temperature;BME280_humidity;BME280_pressure;Samples;Min_cycle;Max_cycle;Signal;HPM_P1;HPM_P2
2021/01/06 00:03:00;;;;;;;;;;;4.00;99.90;;;;;;10406029;28;19929;-65
2021/01/06 00:08:01;;;;;;;;;;;3.90;99.90;;;;;;10407102;28;20020;-65
2021/01/06 00:13:03;;;;;;;;;;;4.00;99.90;;;;;;10406707;28;20040;-66
2021/01/06 00:18:04;;;;;;;;;;;4.00;99.90;;;;;;10405996;28;19970;-65
2021/01/06 00:23:06;;;;;;;;;;;4.10;99.90;;;;;;10404340;28;19925;-65
2021/01/06 00:28:09;;;;;;;;;;;4.10;99.90;;;;;;10405460;28;20027;-65
2021/01/06 00:33:12;;;;;;;;;;;4.10;99.90;;;;;;10367787;28;19929;-65
2021/01/06 00:38:13;;;;;;;;;;;4.10;99.90;;;;;;10406638;28;20369;-65
2021/01/06 00:43:16;;;;;;;;;;;4.20;99.90;;;;;;10405244;28;19956;-66
2021/01/06 00:48:17;;;;;;;;;;;4.10;99.90;;;;;;10404897;28;19953;-66
2021/01/06 00:53:23;;;;;;;;;;;4.20;99.90;;;;;;10404514;28;19999;-65
2021/01/06 00:58:24;;;;;;;;;;;4.10;99.90;;;;;;10405556;28;20407;-65
2021/01/06 01:03:25;;;;;;;;;;;4.00;99.90;;;;;;10420134;28;20019;-65
2021/01/06 01:08:26;;;;;;;;;;;4.10;99.90;;;;;;10404881;28;20007;-65
2021/01/06 01:13:28;;;;;;;;;;;4.10;99.90;;;;;;10404602;28;20032;-65
2021/01/06 01:18:29;;;;;;;;;;;4.10;99.90;;;;;;10403978;28;20366;-65
2021/01/06 01:23:30;;;;;;;;;;;4.10;99.90;;;;;;10419277;28;19968;-65
2021/01/06 01:28:32;;;;;;;;;;;4.10;99.90;;;;;;10403212;28;20052;-65
2021/01/06 01:33:33;;;;;;;;;;;4.10;99.90;;;;;;10403097;28;20012;-65
2021/01/06 01:38:34;;;;;;;;;;;4.20;99.90;;;;;;10435005;28;19933;-65
2021/01/06 01:43:36;;;;;;;;;;;4.20;99.90;;;;;;10403720;28;19954;-65
2021/01/06 01:48:46;;;;;;;;;;;4.20;99.90;;;;;;10403238;28;19932;-66
2021/01/06 01:53:51;;;;;;;;;;;4.20;99.90;;;;;;10403394;28;19965;-65
2021/01/06 01:58:54;;;;;;;;;;;4.10;99.90;;;;;;10403532;28;19932;-65
2021/01/06 02:03:58;;;;;;;;;;;4.10;99.90;;;;;;10403137;28;19976;-65
2021/01/06 02:09:02;;;;;;;;;;;4.10;99.90;;;;;;10373516;28;20420;-65
2021/01/06 02:14:09;;;;;;;;;;;4.10;99.90;;;;;;10402793;28;20384;-65
2021/01/06 02:19:12;;;;;;;;;;;4.20;99.90;;;;;;10402624;28;19968;-65
2021/01/06 02:24:13;;;;;;;;;;;4.20;99.90;;;;;;10402753;28;20020;-66
2021/01/06 02:29:16;;;;;;;;;;;4.20;99.90;;;;;;10403278;28;20008;-65
2021/01/06 02:34:17;;;;;;;;;;;4.20;99.90;;;;;;10401726;28;19925;-65
2021/01/06 02:39:19;;;;;;;;;;;4.20;99.90;;;;;;10403702;28;19975;-65
2021/01/06 02:44:21;;;;;;;;;;;4.20;99.90;;;;;;10403440;28;20008;-66
2021/01/06 02:49:22;;;;;;;;;;;4.30;99.90;;;;;;10408998;28;19968;-65
2021/01/06 02:54:28;;;;;;;;;;;4.20;99.90;;;;;;10411040;28;20008;-66
2021/01/06 02:59:36;;;;;;;;;;;4.10;99.90;;;;;;10410840;28;19972;-65
2021/01/06 03:04:41;;;;;;;;;;;4.10;99.90;;;;;;10417963;28;19976;-65
2021/01/06 03:09:42;;;;;;;;;;;4.20;99.90;;;;;;10419170;28;19971;-65
2021/01/06 03:14:44;;;;;;;;;;;4.20;99.90;;;;;;10418495;28;19983;-65
2021/01/06 03:19:48;;;;;;;;;;;4.20;99.90;;;;;;10418226;28;20012;-65
2021/01/06 03:24:51;;;;;;;;;;;4.20;99.90;;;;;;10419030;28;20389;-65
2021/01/06 03:29:53;;;;;;;;;;;4.20;99.90;;;;;;10418294;28;20007;-65
2021/01/06 03:35:09;;;;;;;;;;;4.20;99.90;;;;;;10450315;28;19971;-65
2021/01/06 03:40:19;;;;;;;;;;;4.20;99.90;;;;;;10418121;28;19929;-65
2021/01/06 03:45:23;;;;;;;;;;;4.20;99.90;;;;;;10417252;28;20003;-66
2021/01/06 03:50:29;;;;;;;;;;;4.20;99.90;;;;;;10417104;28;19973;-65
2021/01/06 03:55:51;;;;;;;;;;;4.20;99.90;;;;;;10417481;28;20037;-65
2021/01/06 04:00:55;;;;;;;;;;;4.20;99.90;;;;;;10416842;28;19972;-65
2021/01/06 04:05:57;;;;;;;;;;;4.10;99.90;;;;;;10411960;28;19976;-65
2021/01/06 04:10:59;;;;;;;;;;;4.10;99.90;;;;;;10408581;28;19994;-65
2021/01/06 04:16:01;;;;;;;;;;;4.10;99.90;;;;;;10441401;28;19947;-65
2021/01/06 04:21:03;;;;;;;;;;;4.10;99.90;;;;;;10408953;28;19969;-65
2021/01/06 04:26:05;;;;;;;;;;;4.20;99.90;;;;;;10408991;28;20019;-66
2021/01/06 04:31:08;;;;;;;;;;;4.30;99.90;;;;;;10423514;28;19964;-65
2021/01/06 04:36:17;;;;;;;;;;;4.20;99.90;;;;;;10409117;28;19956;-65
2021/01/06 04:41:24;;;;;;;;;;;4.10;99.90;;;;;;10408141;28;19933;-65
2021/01/06 04:46:33;;;;;;;;;;;4.10;99.90;;;;;;10408402;28;20448;-65
2021/01/06 04:51:34;;;;;;;;;;;4.20;99.90;;;;;;10423233;28;19929;-65
2021/01/06 04:56:44;;;;;;;;;;;4.30;99.90;;;;;;10407767;28;20019;-65
2021/01/06 05:01:45;;;;;;;;;;;4.30;99.90;;;;;;10408002;28;19925;-65
2021/01/06 05:06:54;;;;;;;;;;;4.30;99.90;;;;;;10407807;28;19992;-66
2021/01/06 05:11:59;;;;;;;;;;;4.30;99.90;;;;;;10406982;28;20056;-65
2021/01/06 05:17:01;;;;;;;;;;;4.40;99.90;;;;;;10407094;28;19976;-66
2021/01/06 05:22:03;;;;;;;;;;;4.40;99.90;;;;;;10407192;28;20455;-65
2021/01/06 05:27:14;;;;;;;;;;;4.40;99.90;;;;;;10406626;28;19964;-65
2021/01/06 05:32:18;;;;;;;;;;;4.40;99.90;;;;;;10405874;28;20218;-65
2021/01/06 05:37:21;;;;;;;;;;;4.40;99.90;;;;;;10406355;28;20447;-65
2021/01/06 05:42:27;;;;;;;;;;;4.30;99.90;;;;;;10405907;28;19956;-66
2021/01/06 05:47:29;;;;;;;;;;;4.30;99.90;;;;;;10405903;28;19928;-65
2021/01/06 05:52:31;;;;;;;;;;;4.20;99.90;;;;;;10405811;28;20369;-65
2021/01/06 05:57:50;;;;;;;;;;;4.20;99.90;;;;;;10404968;28;19925;-65
2021/01/06 06:03:14;;;;;;;;;;;4.20;99.90;;;;;;10405330;28;19925;-65
2021/01/06 06:08:24;;;;;;;;;;;4.10;99.90;;;;;;10404909;28;19925;-65
2021/01/06 06:13:44;;;;;;;;;;;4.10;99.90;;;;;;10389816;28;19925;-65
2021/01/06 06:19:08;;;;;;;;;;;4.00;99.90;;;;;;10405966;28;19987;-66
2021/01/06 06:24:17;;;;;;;;;;;4.00;99.90;;;;;;10403656;28;19968;-65
2021/01/06 06:29:38;;;;;;;;;;;4.00;99.90;;;;;;10404146;28;20020;-65
2021/01/06 06:34:41;;;;;;;;;;;4.00;99.90;;;;;;10405354;28;20365;-65
2021/01/06 06:39:42;;;;;;;;;;;4.00;99.90;;;;;;10419403;28;20019;-65
2021/01/06 06:45:07;;;;;;;;;;;4.10;99.90;;;;;;10404317;28;20375;-66
2021/01/06 06:50:15;;;;;;;;;;;4.10;99.90;;;;;;10375792;28;20026;-65
2021/01/06 06:55:45;;;;;;;;;;;4.10;99.90;;;;;;10404525;28;19929;-65
2021/01/06 07:00:48;;;;;;;;;;;4.10;99.90;;;;;;10391699;28;19929;-65
2021/01/06 07:06:08;;;;;;;;;;;4.10;99.90;;;;;;10403724;28;20380;-65
2021/01/06 07:11:28;;;;;;;;;;;4.10;99.90;;;;;;10404173;28;19929;-65
2021/01/06 07:16:45;;;;;;;;;;;4.20;99.90;;;;;;10404078;28;20328;-66
2021/01/06 07:21:57;;;;;;;;;;;4.20;99.90;;;;;;10404262;28;20015;-66
2021/01/06 07:27:00;;;;;;;;;;;4.30;99.90;;;;;;10401529;28;20012;-65
2021/01/06 07:32:04;;;;;;;;;;;4.20;99.90;;;;;;10395941;28;19967;-65
2021/01/06 07:37:10;;;;;;;;;;;4.30;99.90;;;;;;10410987;28;19971;-65
2021/01/06 07:42:27;;;;;;;;;;;4.30;99.90;;;;;;10410378;28;20317;-66
2021/01/06 07:47:29;;;;;;;;;;;4.30;99.90;;;;;;10363371;28;20363;-65
2021/01/06 07:52:39;;;;;;;;;;;4.20;99.90;;;;;;10365266;28;20409;-65
2021/01/06 07:57:46;;;;;;;;;;;4.20;99.90;;;;;;10364484;28;19961;-65
2021/01/06 08:02:57;;;;;;;;;;;4.30;99.90;;;;;;10363086;28;19965;-65
2021/01/06 08:08:15;;;;;;;;;;;4.30;99.90;;;;;;10363257;28;19960;-65
2021/01/06 08:13:22;;;;;;;;;;;4.30;99.90;;;;;;10363453;28;19968;-65
2021/01/06 08:18:26;;;;;;;;;;;4.40;99.90;;;;;;10397254;28;20016;-65
2021/01/06 08:23:32;;;;;;;;;;;4.30;99.90;;;;;;10408892;28;19983;-65
2021/01/06 08:28:33;;;;;;;;;;;4.40;99.90;;;;;;10407947;28;20044;-65
2021/01/06 08:33:48;;;;;;;;;;;4.40;99.90;;;;;;10408631;28;19932;-65
2021/01/06 08:39:04;;;;;;;;;;;4.50;99.90;;;;;;10407124;28;20286;-65
2021/01/06 08:44:06;;;;;;;;;;;4.50;99.90;;;;;;10408517;28;20028;-65
2021/01/06 08:49:28;;;;;;;;;;;4.60;99.90;;;;;;10406283;28;20445;-65
2021/01/06 08:54:30;;;;;;;;;;;4.60;99.90;;;;;;10397492;28;20340;-66
2021/01/06 08:59:36;;;;;;;;;;;4.50;99.90;;;;;;10406352;28;20055;-66
2021/01/06 09:04:41;;;;;;;;;;;4.60;99.90;;;;;;10407433;28;19933;-65
2021/01/06 09:10:02;;;;;;;;;;;4.60;99.90;;;;;;10406537;28;20008;-65
2021/01/06 09:15:05;;;;;;;;;;;4.60;99.90;;;;;;10406015;28;20405;-65
2021/01/06 09:20:22;;;;;;;;;;;4.70;99.90;;;;;;10397973;28;19967;-66
2021/01/06 09:25:25;;;;;;;;;;;4.70;99.90;;;;;;10404854;28;20774;-66
2021/01/06 09:30:37;;;;;;;;;;;4.80;99.90;;;;;;10401843;28;19959;-65
2021/01/06 09:35:38;;;;;;;;;;;4.80;99.90;;;;;;10400069;28;20023;-66
2021/01/06 09:40:39;;;;;;;;;;;4.90;99.90;;;;;;10401295;28;19933;-65
2021/01/06 09:45:41;;;;;;;;;;;5.00;99.90;;;;;;10402794;28;20373;-65
2021/01/06 09:50:48;;;;;;;;;;;5.10;99.90;;;;;;10404189;28;19925;-66
2021/01/06 09:55:51;;;;;;;;;;;5.10;99.90;;;;;;10400054;28;20290;-66
2021/01/06 10:01:01;;;;;;;;;;;5.10;99.90;;;;;;10401547;28;20428;-69
2021/01/06 10:06:14;;;;;;;;;;;5.20;99.90;;;;;;10400620;28;20052;-69
2021/01/06 10:11:37;;;;;;;;;;;5.40;99.90;;;;;;10401211;28;19932;-69
2021/01/06 10:16:53;;;;;;;;;;;5.40;99.90;;;;;;10401070;28;19929;-69
2021/01/06 10:22:02;;;;;;;;;;;5.40;99.90;;;;;;10403692;28;20361;-69
2021/01/06 10:27:13;;;;;;;;;;;5.50;99.90;;;;;;10402061;28;20016;-69
2021/01/06 10:32:14;;;;;;;;;;;5.50;99.90;;;;;;10405718;28;20039;-69
2021/01/06 10:37:25;;;;;;;;;;;5.70;99.90;;;;;;10404775;28;19925;-69
2021/01/06 10:42:26;;;;;;;;;;;5.80;99.90;;;;;;10403054;28;19925;-69
2021/01/06 10:47:27;;;;;;;;;;;5.80;99.90;;;;;;10403885;28;19972;-69
2021/01/06 10:52:47;;;;;;;;;;;5.90;99.90;;;;;;10404831;28;19991;-68
2021/01/06 10:57:53;;;;;;;;;;;5.90;99.90;;;;;;10398365;28;20016;-69
2021/01/06 11:03:06;;;;;;;;;;;5.90;99.90;;;;;;10402224;28;19969;-69
2021/01/06 11:08:26;;;;;;;;;;;5.90;99.90;;;;;;10404581;28;19987;-69
2021/01/06 11:13:51;;;;;;;;;;;5.90;99.90;;;;;;10410829;28;20396;-69
2021/01/06 11:18:54;;;;;;;;;;;6.00;99.90;;;;;;10410914;28;19964;-69
2021/01/06 11:23:59;;;;;;;;;;;6.10;99.90;;;;;;10409495;28;20020;-69
2021/01/06 11:29:12;;;;;;;;;;;6.20;99.90;;;;;;10409165;28;19971;-69
2021/01/06 11:34:13;;;;;;;;;;;6.20;99.90;;;;;;10409796;28;19983;-69
2021/01/06 11:39:26;;;;;;;;;;;6.20;99.90;;;;;;10408559;28;19929;-69
2021/01/06 11:44:30;;;;;;;;;;;6.30;99.90;;;;;;10405825;28;19925;-69
2021/01/06 11:49:35;;;;;;;;;;;6.30;99.90;;;;;;10408359;28;20008;-70
2021/01/06 11:54:37;;;;;;;;;;;6.30;99.90;;;;;;10400675;28;20007;-70
2021/01/06 11:59:47;;;;;;;;;;;6.30;99.90;;;;;;10434054;28;19933;-70
2021/01/06 12:04:54;;;;;;;;;;;6.30;99.90;;;;;;10406608;28;19929;-69
2021/01/06 12:10:03;;;;;;;;;;;6.50;99.90;;;;;;10404496;28;20348;-69
2021/01/06 12:15:23;;;;;;;;;;;6.50;99.90;;;;;;10404887;28;19998;-69
2021/01/06 12:20:26;;;;;;;;;;;6.70;99.90;;;;;;10407860;28;20016;-69
2021/01/06 12:25:27;;;;;;;;;;;6.70;99.90;;;;;;10405435;28;20044;-70
2021/01/06 12:30:40;;;;;;;;;;;6.70;99.90;;;;;;10405758;28;20421;-69
2021/01/06 12:35:43;;;;;;;;;;;6.60;99.90;;;;;;10403060;28;19972;-70
2021/01/06 12:41:06;;;;;;;;;;;6.60;99.90;;;;;;10404849;28;19925;-70
2021/01/06 12:46:11;;;;;;;;;;;6.60;99.90;;;;;;10403324;28;20388;-70
2021/01/06 12:51:23;;;;;;;;;;;6.50;99.90;;;;;;10407138;28;20075;-70
2021/01/06 12:56:31;;;;;;;;;;;6.50;99.90;;;;;;10402067;28;20355;-70
2021/01/06 13:01:45;;;;;;;;;;;6.40;99.90;;;;;;10404151;28;19964;-69
2021/01/06 13:06:55;;;;;;;;;;;6.60;99.90;;;;;;10403861;28;20347;-70
2021/01/06 13:11:59;;;;;;;;;;;6.70;99.90;;;;;;10406040;28;19933;-70
2021/01/06 13:17:14;;;;;;;;;;;6.90;99.90;;;;;;10405121;28;19968;-69
2021/01/06 13:22:20;;;;;;;;;;;6.90;99.90;;;;;;10404888;28;19925;-70
2021/01/06 13:27:44;;;;;;;;;;;6.80;99.90;;;;;;10405518;28;19975;-70
2021/01/06 13:33:05;;;;;;;;;;;6.80;99.90;;;;;;10397337;28;19960;-70
2021/01/06 13:38:24;;;;;;;;;;;6.80;99.90;;;;;;10404960;28;19964;-70
2021/01/06 13:43:35;;;;;;;;;;;6.80;99.90;;;;;;10405735;28;19935;-69
2021/01/06 13:48:37;;;;;;;;;;;6.70;99.90;;;;;;10404795;28;19929;-69
2021/01/06 13:53:45;;;;;;;;;;;6.70;99.90;;;;;;10404960;28;19929;-70
2021/01/06 13:59:05;;;;;;;;;;;6.60;99.90;;;;;;10402933;28;19925;-69
2021/01/06 14:04:08;;;;;;;;;;;6.40;99.90;;;;;;10404986;28;20016;-70
2021/01/06 14:09:30;;;;;;;;;;;6.40;99.90;;;;;;10403386;28;19925;-70
2021/01/06 14:14:43;;;;;;;;;;;6.50;99.90;;;;;;10404700;28;19929;-70
2021/01/06 14:19:51;;;;;;;;;;;6.50;99.90;;;;;;10403183;28;19936;-70
2021/01/06 14:24:52;;;;;;;;;;;6.50;99.90;;;;;;10402037;28;20043;-69
2021/01/06 14:30:16;;;;;;;;;;;6.60;99.90;;;;;;10402351;28;20028;-69
2021/01/06 14:35:26;;;;;;;;;;;6.60;99.90;;;;;;10403120;28;20332;-69
2021/01/06 14:40:32;;;;;;;;;;;6.60;99.90;;;;;;10404181;28;20404;-69
2021/01/06 14:45:36;;;;;;;;;;;6.60;99.90;;;;;;10410148;28;20296;-69
2021/01/06 14:51:04;;;;;;;;;;;6.60;99.90;;;;;;10412359;28;19971;-70
2021/01/06 14:56:26;;;;;;;;;;;6.60;99.90;;;;;;10410149;28;19929;-69
2021/01/06 15:01:34;;;;;;;;;;;6.30;99.90;;;;;;10408890;28;19976;-69
2021/01/06 15:06:54;;;;;;;;;;;6.30;99.90;;;;;;10411143;28;20278;-69
2021/01/06 15:11:59;;;;;;;;;;;6.30;99.90;;;;;;10411482;28;20008;-69
2021/01/06 15:17:01;;;;;;;;;;;6.20;99.90;;;;;;10409990;28;19984;-69
2021/01/06 15:22:13;;;;;;;;;;;6.10;99.90;;;;;;10410977;28;20277;-69
2021/01/06 15:27:17;;;;;;;;;;;6.00;99.90;;;;;;10409948;28;20020;-70
2021/01/06 15:32:37;;;;;;;;;;;5.90;99.90;;;;;;10409678;28;19925;-70
2021/01/06 15:37:39;;;;;;;;;;;5.70;99.90;;;;;;10409172;28;20297;-70
2021/01/06 15:42:41;;;;;;;;;;;5.60;99.90;;;;;;10409754;28;20320;-70
2021/01/06 15:47:43;;;;;;;;;;;5.50;99.90;;;;;;10409302;28;19932;-70
2021/01/06 15:52:44;;;;;;;;;;;5.60;99.90;;;;;;10408494;28;19929;-70
2021/01/06 15:57:46;;;;;;;;;;;5.60;99.90;;;;;;10407243;28;19925;-69
2021/01/06 16:02:52;;;;;;;;;;;5.60;99.90;;;;;;10406184;28;20109;-70
2021/01/06 16:07:54;;;;;;;;;;;5.60;99.90;;;;;;10408715;28;19979;-70
2021/01/06 16:12:55;;;;;;;;;;;5.60;99.90;;;;;;10408458;28;20373;-70
2021/01/06 16:17:57;;;;;;;;;;;5.50;99.90;;;;;;10407440;28;19925;-70
2021/01/06 16:22:59;;;;;;;;;;;5.60;99.90;;;;;;10407367;28;19979;-70
2021/01/06 16:28:15;;;;;;;;;;;5.60;99.90;;;;;;10403551;28;19933;-70
2021/01/06 16:33:18;;;;;;;;;;;5.50;99.90;;;;;;10395723;28;19929;-70
2021/01/06 16:38:22;;;;;;;;;;;5.50;99.90;;;;;;10407662;28;19932;-70
2021/01/06 16:43:28;;;;;;;;;;;5.50;99.90;;;;;;10407245;28;19948;-70
2021/01/06 16:48:29;;;;;;;;;;;5.60;99.90;;;;;;10400239;28;19941;-70
2021/01/06 16:53:31;;;;;;;;;;;5.50;99.90;;;;;;10407325;28;19983;-70
2021/01/06 16:58:33;;;;;;;;;;;5.50;99.90;;;;;;10405350;28;20646;-70
2021/01/06 17:03:39;;;;;;;;;;;5.50;99.90;;;;;;10404703;28;20131;-66
2021/01/06 17:08:40;;;;;;;;;;;5.60;99.90;;;;;;10401425;28;20008;-66
2021/01/06 17:14:03;;;;;;;;;;;5.50;99.90;;;;;;10397423;28;20015;-66
2021/01/06 17:19:11;;;;;;;;;;;5.40;99.90;;;;;;10404372;28;19933;-66
2021/01/06 17:24:21;;;;;;;;;;;5.20;99.90;;;;;;10404362;28;20330;-66
2021/01/06 17:29:24;;;;;;;;;;;5.30;99.90;;;;;;10398851;28;19936;-66
2021/01/06 17:34:25;;;;;;;;;;;5.30;99.90;;;;;;10404667;28;20047;-66
2021/01/06 17:39:36;;;;;;;;;;;5.30;99.90;;;;;;10404373;28;19925;-66
2021/01/06 17:44:37;;;;;;;;;;;5.20;99.90;;;;;;10403075;28;19935;-66
2021/01/06 17:49:39;;;;;;;;;;;5.20;99.90;;;;;;10405101;28;19964;-66
2021/01/06 17:54:41;;;;;;;;;;;5.10;99.90;;;;;;10401901;28;19932;-66
2021/01/06 17:59:42;;;;;;;;;;;5.20;99.90;;;;;;10403319;28;19964;-66
2021/01/06 18:04:44;;;;;;;;;;;5.10;99.90;;;;;;10399140;28;19968;-66
2021/01/06 18:09:50;;;;;;;;;;;5.10;99.90;;;;;;10402511;28;20474;-66
2021/01/06 18:14:51;;;;;;;;;;;5.10;99.90;;;;;;10402206;28;19991;-66
2021/01/06 18:19:54;;;;;;;;;;;5.10;99.90;;;;;;10401691;28;19960;-66
2021/01/06 18:24:55;;;;;;;;;;;5.10;99.90;;;;;;10401964;28;19979;-66
2021/01/06 18:29:57;;;;;;;;;;;5.00;99.90;;;;;;10418263;28;19925;-66
2021/01/06 18:35:12;;;;;;;;;;;5.10;99.90;;;;;;10400638;28;19929;-67
2021/01/06 18:40:16;;;;;;;;;;;5.20;99.90;;;;;;10402677;28;20030;-66
2021/01/06 18:45:18;;;;;;;;;;;5.10;99.90;;;;;;10402332;28;19933;-66
2021/01/06 18:50:20;;;;;;;;;;;5.10;99.90;;;;;;10432564;28;19929;-66
2021/01/06 18:55:29;;;;;;;;;;;5.00;99.90;;;;;;10402423;28;20367;-66
2021/01/06 19:00:31;;;;;;;;;;;5.10;99.90;;;;;;10401749;28;19929;-66
2021/01/06 19:05:43;;;;;;;;;;;5.00;99.90;;;;;;10399511;28;19925;-66
2021/01/06 19:10:44;;;;;;;;;;;5.00;99.90;;;;;;10400748;28;19999;-66
2021/01/06 19:15:48;;;;;;;;;;;4.90;99.90;;;;;;10400288;28;19976;-66
2021/01/06 19:20:50;;;;;;;;;;;5.00;99.90;;;;;;10417574;28;20369;-66
2021/01/06 19:25:52;;;;;;;;;;;5.00;99.90;;;;;;10401942;28;20056;-66
2021/01/06 19:30:54;;;;;;;;;;;5.00;99.90;;;;;;10404586;28;19925;-66
2021/01/06 19:36:02;;;;;;;;;;;5.00;99.90;;;;;;10410214;28;19925;-66
2021/01/06 19:41:03;;;;;;;;;;;5.00;99.90;;;;;;10409279;28;20259;-66
2021/01/06 19:46:05;;;;;;;;;;;5.00;99.90;;;;;;10410863;28;19972;-66
2021/01/06 19:51:06;;;;;;;;;;;4.90;99.90;;;;;;10410350;28;19929;-66
2021/01/06 19:56:12;;;;;;;;;;;5.00;99.90;;;;;;10410541;28;19979;-66
2021/01/06 20:01:21;;;;;;;;;;;5.00;99.90;;;;;;10410405;28;19925;-66
2021/01/06 20:06:22;;;;;;;;;;;4.90;99.90;;;;;;10409482;28;19925;-66
2021/01/06 20:11:24;;;;;;;;;;;4.90;99.90;;;;;;10409131;28;19964;-66
2021/01/06 20:16:26;;;;;;;;;;;4.90;99.90;;;;;;10409463;28;19983;-66
2021/01/06 20:21:32;;;;;;;;;;;4.80;99.90;;;;;;10408888;28;19979;-66
2021/01/06 20:26:35;;;;;;;;;;;4.80;99.90;;;;;;10409862;28;19933;-66
2021/01/06 20:31:36;;;;;;;;;;;4.90;99.90;;;;;;10408994;28;19964;-66
2021/01/06 20:36:38;;;;;;;;;;;5.00;99.90;;;;;;10406759;28;19968;-66
2021/01/06 20:41:40;;;;;;;;;;;5.00;99.90;;;;;;10405924;28;20289;-66
2021/01/06 20:46:42;;;;;;;;;;;5.00;99.90;;;;;;10422222;28;19979;-66
2021/01/06 20:51:43;;;;;;;;;;;5.00;99.90;;;;;;10406565;28;20318;-66
2021/01/06 20:56:52;;;;;;;;;;;5.00;99.90;;;;;;10405983;28;20012;-66
2021/01/06 21:02:12;;;;;;;;;;;5.00;99.90;;;;;;10407039;28;19961;-66
2021/01/06 21:07:13;;;;;;;;;;;5.00;99.90;;;;;;10406381;28;19963;-66
2021/01/06 21:12:14;;;;;;;;;;;5.00;99.90;;;;;;10405377;28;19983;-66
2021/01/06 21:17:16;;;;;;;;;;;5.00;99.90;;;;;;10404528;28;20018;-66
2021/01/06 21:22:17;;;;;;;;;;;4.80;99.90;;;;;;10403153;28;20437;-66
2021/01/06 21:27:19;;;;;;;;;;;4.70;99.90;;;;;;10400704;28;19979;-66
2021/01/06 21:32:23;;;;;;;;;;;4.60;99.90;;;;;;10402985;28;19925;-66
2021/01/06 21:37:25;;;;;;;;;;;4.60;99.90;;;;;;10420436;28;20023;-66
2021/01/06 21:42:26;;;;;;;;;;;4.60;99.90;;;;;;10405023;28;20036;-66
2021/01/06 21:47:27;;;;;;;;;;;4.70;99.90;;;;;;10419444;28;19985;-66
2021/01/06 21:52:29;;;;;;;;;;;4.70;99.90;;;;;;10404434;28;20028;-66
2021/01/06 21:57:30;;;;;;;;;;;4.70;99.90;;;;;;10403291;28;20217;-66
2021/01/06 22:02:31;;;;;;;;;;;4.70;99.90;;;;;;10403696;28;20014;-66
2021/01/06 22:07:33;;;;;;;;;;;4.70;99.90;;;;;;10404454;28;20008;-66
2021/01/06 22:12:34;;;;;;;;;;;4.70;99.90;;;;;;10404629;28;19956;-66
2021/01/06 22:17:36;;;;;;;;;;;4.60;99.90;;;;;;10403976;28;19935;-66
2021/01/06 22:22:37;;;;;;;;;;;4.60;99.90;;;;;;10403515;28;19925;-66
2021/01/06 22:27:38;;;;;;;;;;;4.60;99.90;;;;;;10404362;28;19968;-66
2021/01/06 22:32:40;;;;;;;;;;;4.70;99.90;;;;;;10403584;28;19971;-66
2021/01/06 22:37:41;;;;;;;;;;;4.70;99.90;;;;;;10403336;28;19926;-66
2021/01/06 22:42:42;;;;;;;;;;;4.70;99.90;;;;;;10404162;28;20023;-66
2021/01/06 22:47:45;;;;;;;;;;;4.60;99.90;;;;;;10403671;28;19961;-66
2021/01/06 22:52:47;;;;;;;;;;;4.60;99.90;;;;;;10404270;28;20041;-66
2021/01/06 22:57:48;;;;;;;;;;;4.50;99.90;;;;;;10404757;28;19951;-66
2021/01/06 23:02:50;;;;;;;;;;;4.50;99.90;;;;;;10401353;28;19933;-66
2021/01/06 23:07:52;;;;;;;;;;;4.50;99.90;;;;;;10409422;28;19956;-66
2021/01/06 23:12:53;;;;;;;;;;;4.50;99.90;;;;;;10406795;28;20012;-66
2021/01/06 23:17:54;;;;;;;;;;;4.30;99.90;;;;;;10408166;28;20024;-66
2021/01/06 23:22:56;;;;;;;;;;;4.30;99.90;;;;;;10404625;28;20508;-66
2021/01/06 23:27:57;;;;;;;;;;;4.30;99.90;;;;;;10408893;28;19976;-66
2021/01/06 23:32:58;;;;;;;;;;;4.20;99.90;;;;;;10409086;28;20008;-66
2021/01/06 23:37:59;;;;;;;;;;;4.20;99.90;;;;;;10406055;28;19964;-66
2021/01/06 23:43:01;;;;;;;;;;;4.20;99.90;;;;;;10424420;28;20540;-66
2021/01/06 23:48:03;;;;;;;;;;;4.20;99.90;;;;;;10408491;28;20352;-65
2021/01/06 23:53:04;;;;;;;;;;;4.20;99.90;;;;;;10423662;28;19925;-66
2021/01/06 23:58:05;;;;;;;;;;;4.20;99.90;;;;;;10408273;28;20548;-66
